GABS/BKO METAR and TAF weather

Enter ICAO airport designator
Station Type Date Time Source
GABS METAR 2018/09/21 23:00 UTC NOAA

GABS 212300Z VRB03KT 9999 TS FEW020 FEW030CB 25/23 Q1015 BECMG NSW


Station Type Date Time Source
GABS Decoded METAR 2018/09/21 23:00 UTC NOAA

Bamako / Senou, Mali (GABS) 12-32N 007-57W 381M
Sep 21, 2018 - 07:00 PM EDT / 2018.09.21 2300 UTC
Wind: Variable at 3 MPH (3 KT):0
Visibility: greater than 7 mile(s):0
Sky conditions: mostly clear
Weather: thunder; Cumulonimbus clouds observed
Temperature: 77 F (25 C)
Dew Point: 73 F (23 C)
Relative Humidity: 88%
Pressure (altimeter): 29.97 in. Hg (1015 hPa)
ob: GABS 212300Z VRB03KT 9999 TS FEW020 FEW030CB 25/23 Q1015 BECMG NSW
cycle: 23

Station Type Date Time Source
GABS TAF 2018/09/21 12:51 UTC NOAA

TAF TAF GABS 211127Z 2112/2218 23008KT 9999 FEW020
TEMPO 2114/2120 08015G35KT 1200 BLDU TSRA SCT020 FEW030CB
BECMG 2200/2202 08025G45KT 2000 TSRA BKN020 SCT030CB
BECMG 2208/2210 22006KT 9999 NSW FEW020


Example: see airport list